sensor_id;sensor_type;location;lat;lon;timestamp;P1;durP1;ratioP1;P2;durP2;ratioP2
76725;SDS011;65651;53.154;17.916;2023-07-20T00:02:13;5.40;;;4.10;;
76725;SDS011;65651;53.154;17.916;2023-07-20T00:04:40;8.00;;;4.00;;
76725;SDS011;65651;53.154;17.916;2023-07-20T00:07:08;6.00;;;3.90;;
76725;SDS011;65651;53.154;17.916;2023-07-20T00:09:35;4.30;;;3.70;;
76725;SDS011;65651;53.154;17.916;2023-07-20T00:12:06;5.30;;;3.60;;
76725;SDS011;65651;53.154;17.916;2023-07-20T00:14:34;5.70;;;3.90;;
76725;SDS011;65651;53.154;17.916;2023-07-20T00:17:02;4.80;;;3.90;;
76725;SDS011;65651;53.154;17.916;2023-07-20T00:19:29;7.40;;;3.40;;
76725;SDS011;65651;53.154;17.916;2023-07-20T00:21:59;6.60;;;3.80;;
76725;SDS011;65651;53.154;17.916;2023-07-20T00:24:26;5.90;;;3.90;;
76725;SDS011;65651;53.154;17.916;2023-07-20T00:26:54;6.80;;;3.70;;
76725;SDS011;65651;53.154;17.916;2023-07-20T00:29:21;4.80;;;4.20;;
76725;SDS011;65651;53.154;17.916;2023-07-20T00:31:48;7.90;;;4.30;;
76725;SDS011;65651;53.154;17.916;2023-07-20T00:34:15;6.30;;;4.40;;
76725;SDS011;65651;53.154;17.916;2023-07-20T00:36:43;6.70;;;4.30;;
76725;SDS011;65651;53.154;17.916;2023-07-20T00:39:10;7.90;;;5.20;;
76725;SDS011;65651;53.154;17.916;2023-07-20T00:41:37;6.30;;;4.60;;
76725;SDS011;65651;53.154;17.916;2023-07-20T00:44:05;7.60;;;5.20;;
76725;SDS011;65651;53.154;17.916;2023-07-20T00:46:33;7.60;;;5.20;;
76725;SDS011;65651;53.154;17.916;2023-07-20T00:49:01;6.10;;;5.20;;
76725;SDS011;65651;53.154;17.916;2023-07-20T00:51:28;7.50;;;5.00;;
76725;SDS011;65651;53.154;17.916;2023-07-20T00:53:56;9.20;;;5.10;;
76725;SDS011;65651;53.154;17.916;2023-07-20T00:56:24;8.30;;;5.60;;
76725;SDS011;65651;53.154;17.916;2023-07-20T00:58:52;5.70;;;5.10;;
76725;SDS011;65651;53.154;17.916;2023-07-20T01:01:19;7.10;;;5.60;;
76725;SDS011;65651;53.154;17.916;2023-07-20T01:03:48;7.20;;;5.70;;
76725;SDS011;65651;53.154;17.916;2023-07-20T01:06:28;8.40;;;5.40;;
76725;SDS011;65651;53.154;17.916;2023-07-20T01:09:17;12.60;;;5.50;;
76725;SDS011;65651;53.154;17.916;2023-07-20T01:14:47;6.40;;;4.70;;
76725;SDS011;65651;53.154;17.916;2023-07-20T01:17:14;8.50;;;5.10;;
76725;SDS011;65651;53.154;17.916;2023-07-20T01:19:41;5.40;;;4.60;;
76725;SDS011;65651;53.154;17.916;2023-07-20T01:22:14;5.10;;;4.10;;
76725;SDS011;65651;53.154;17.916;2023-07-20T01:33:44;5.40;;;3.90;;
76725;SDS011;65651;53.154;17.916;2023-07-20T01:36:14;6.10;;;4.30;;
76725;SDS011;65651;53.154;17.916;2023-07-20T01:38:43;7.50;;;3.90;;
76725;SDS011;65651;53.154;17.916;2023-07-20T01:41:11;5.00;;;4.10;;
76725;SDS011;65651;53.154;17.916;2023-07-20T01:43:39;5.90;;;3.80;;
76725;SDS011;65651;53.154;17.916;2023-07-20T01:46:06;6.90;;;3.70;;
76725;SDS011;65651;53.154;17.916;2023-07-20T01:48:34;4.80;;;3.70;;
76725;SDS011;65651;53.154;17.916;2023-07-20T01:51:02;3.90;;;3.10;;
76725;SDS011;65651;53.154;17.916;2023-07-20T01:53:30;4.80;;;3.30;;
76725;SDS011;65651;53.154;17.916;2023-07-20T01:56:02;5.60;;;4.00;;
76725;SDS011;65651;53.154;17.916;2023-07-20T01:58:31;4.00;;;3.40;;
76725;SDS011;65651;53.154;17.916;2023-07-20T02:00:58;4.90;;;3.90;;
76725;SDS011;65651;53.154;17.916;2023-07-20T02:03:26;4.50;;;3.30;;
76725;SDS011;65651;53.154;17.916;2023-07-20T02:05:53;5.60;;;3.10;;
76725;SDS011;65651;53.154;17.916;2023-07-20T02:08:20;9.10;;;4.00;;
76725;SDS011;65651;53.154;17.916;2023-07-20T02:10:48;4.60;;;3.60;;
76725;SDS011;65651;53.154;17.916;2023-07-20T02:13:17;4.50;;;3.40;;
76725;SDS011;65651;53.154;17.916;2023-07-20T02:15:44;3.80;;;3.40;;
76725;SDS011;65651;53.154;17.916;2023-07-20T02:18:14;5.40;;;3.30;;
76725;SDS011;65651;53.154;17.916;2023-07-20T02:20:41;3.30;;;2.60;;
76725;SDS011;65651;53.154;17.916;2023-07-20T02:23:09;6.40;;;3.50;;
76725;SDS011;65651;53.154;17.916;2023-07-20T02:25:37;6.30;;;2.80;;
76725;SDS011;65651;53.154;17.916;2023-07-20T02:28:06;3.80;;;3.00;;
76725;SDS011;65651;53.154;17.916;2023-07-20T02:30:37;5.20;;;3.30;;
76725;SDS011;65651;53.154;17.916;2023-07-20T02:33:06;4.10;;;3.00;;
76725;SDS011;65651;53.154;17.916;2023-07-20T02:35:37;3.90;;;3.00;;
76725;SDS011;65651;53.154;17.916;2023-07-20T02:38:04;6.10;;;3.80;;
76725;SDS011;65651;53.154;17.916;2023-07-20T02:40:33;5.90;;;3.60;;
76725;SDS011;65651;53.154;17.916;2023-07-20T02:43:01;4.10;;;3.20;;
76725;SDS011;65651;53.154;17.916;2023-07-20T02:45:33;5.80;;;3.70;;
76725;SDS011;65651;53.154;17.916;2023-07-20T02:48:00;4.60;;;3.60;;
76725;SDS011;65651;53.154;17.916;2023-07-20T02:50:27;5.90;;;3.90;;
76725;SDS011;65651;53.154;17.916;2023-07-20T02:52:55;4.10;;;3.60;;
76725;SDS011;65651;53.154;17.916;2023-07-20T02:55:22;6.00;;;3.80;;
76725;SDS011;65651;53.154;17.916;2023-07-20T02:57:49;5.00;;;3.80;;
76725;SDS011;65651;53.154;17.916;2023-07-20T03:00:17;4.30;;;3.40;;
76725;SDS011;65651;53.154;17.916;2023-07-20T03:02:46;7.30;;;3.80;;
76725;SDS011;65651;53.154;17.916;2023-07-20T03:05:19;5.60;;;3.20;;
76725;SDS011;65651;53.154;17.916;2023-07-20T03:07:48;6.60;;;3.20;;
76725;SDS011;65651;53.154;17.916;2023-07-20T03:10:16;4.50;;;3.60;;
76725;SDS011;65651;53.154;17.916;2023-07-20T03:12:43;5.80;;;3.80;;
76725;SDS011;65651;53.154;17.916;2023-07-20T03:15:11;4.10;;;3.40;;
76725;SDS011;65651;53.154;17.916;2023-07-20T03:17:39;4.50;;;3.80;;
76725;SDS011;65651;53.154;17.916;2023-07-20T03:20:06;4.70;;;3.80;;
76725;SDS011;65651;53.154;17.916;2023-07-20T03:22:36;5.60;;;3.90;;
76725;SDS011;65651;53.154;17.916;2023-07-20T03:25:03;4.20;;;3.80;;
76725;SDS011;65651;53.154;17.916;2023-07-20T03:27:31;5.40;;;3.70;;
76725;SDS011;65651;53.154;17.916;2023-07-20T03:30:00;4.40;;;3.70;;
76725;SDS011;65651;53.154;17.916;2023-07-20T03:32:27;6.00;;;3.90;;
76725;SDS011;65651;53.154;17.916;2023-07-20T03:34:55;5.70;;;4.30;;
76725;SDS011;65651;53.154;17.916;2023-07-20T03:37:22;5.20;;;3.70;;
76725;SDS011;65651;53.154;17.916;2023-07-20T03:39:50;5.10;;;3.50;;
76725;SDS011;65651;53.154;17.916;2023-07-20T03:42:17;5.70;;;3.30;;
76725;SDS011;65651;53.154;17.916;2023-07-20T03:44:44;5.00;;;3.10;;
76725;SDS011;65651;53.154;17.916;2023-07-20T03:47:11;4.40;;;3.50;;
76725;SDS011;65651;53.154;17.916;2023-07-20T03:49:39;6.00;;;3.20;;
76725;SDS011;65651;53.154;17.916;2023-07-20T03:52:07;4.00;;;3.00;;
76725;SDS011;65651;53.154;17.916;2023-07-20T03:54:34;5.70;;;3.60;;
76725;SDS011;65651;53.154;17.916;2023-07-20T03:57:02;6.80;;;3.00;;
76725;SDS011;65651;53.154;17.916;2023-07-20T03:59:30;9.00;;;3.20;;
76725;SDS011;65651;53.154;17.916;2023-07-20T04:01:57;4.80;;;2.90;;
76725;SDS011;65651;53.154;17.916;2023-07-20T04:04:24;3.30;;;2.40;;
76725;SDS011;65651;53.154;17.916;2023-07-20T04:06:51;3.30;;;2.80;;
76725;SDS011;65651;53.154;17.916;2023-07-20T04:09:20;3.90;;;2.90;;
76725;SDS011;65651;53.154;17.916;2023-07-20T04:11:54;4.00;;;2.60;;
76725;SDS011;65651;53.154;17.916;2023-07-20T04:14:21;4.30;;;2.70;;
76725;SDS011;65651;53.154;17.916;2023-07-20T04:16:51;3.70;;;2.70;;
76725;SDS011;65651;53.154;17.916;2023-07-20T04:22:17;3.80;;;1.90;;
76725;SDS011;65651;53.154;17.916;2023-07-20T04:24:54;4.30;;;3.00;;
76725;SDS011;65651;53.154;17.916;2023-07-20T04:27:21;7.20;;;2.90;;
76725;SDS011;65651;53.154;17.916;2023-07-20T04:29:48;3.40;;;2.30;;
76725;SDS011;65651;53.154;17.916;2023-07-20T04:32:15;4.20;;;2.50;;
76725;SDS011;65651;53.154;17.916;2023-07-20T04:34:43;4.10;;;2.60;;
76725;SDS011;65651;53.154;17.916;2023-07-20T04:37:10;2.60;;;2.20;;
76725;SDS011;65651;53.154;17.916;2023-07-20T04:39:38;5.20;;;3.10;;
76725;SDS011;65651;53.154;17.916;2023-07-20T04:42:09;5.10;;;2.60;;
76725;SDS011;65651;53.154;17.916;2023-07-20T04:44:38;3.50;;;2.70;;
76725;SDS011;65651;53.154;17.916;2023-07-20T04:47:14;2.60;;;2.30;;
76725;SDS011;65651;53.154;17.916;2023-07-20T04:49:43;3.80;;;2.70;;
76725;SDS011;65651;53.154;17.916;2023-07-20T04:52:13;3.40;;;2.40;;
76725;SDS011;65651;53.154;17.916;2023-07-20T04:54:40;6.00;;;3.10;;
76725;SDS011;65651;53.154;17.916;2023-07-20T04:57:10;3.00;;;2.70;;
76725;SDS011;65651;53.154;17.916;2023-07-20T04:59:41;5.30;;;2.80;;
76725;SDS011;65651;53.154;17.916;2023-07-20T05:02:08;4.80;;;2.60;;
76725;SDS011;65651;53.154;17.916;2023-07-20T05:04:35;3.70;;;2.90;;
76725;SDS011;65651;53.154;17.916;2023-07-20T05:07:03;5.50;;;4.20;;
76725;SDS011;65651;53.154;17.916;2023-07-20T05:09:30;3.20;;;2.70;;
76725;SDS011;65651;53.154;17.916;2023-07-20T05:11:58;4.10;;;2.60;;
76725;SDS011;65651;53.154;17.916;2023-07-20T05:14:26;4.80;;;2.40;;
76725;SDS011;65651;53.154;17.916;2023-07-20T05:16:54;5.20;;;2.80;;
76725;SDS011;65651;53.154;17.916;2023-07-20T05:19:21;3.30;;;2.30;;
76725;SDS011;65651;53.154;17.916;2023-07-20T05:21:51;2.50;;;2.20;;
76725;SDS011;65651;53.154;17.916;2023-07-20T05:24:18;2.80;;;1.90;;
76725;SDS011;65651;53.154;17.916;2023-07-20T05:26:45;5.40;;;1.80;;
76725;SDS011;65651;53.154;17.916;2023-07-20T05:29:13;4.60;;;2.00;;
76725;SDS011;65651;53.154;17.916;2023-07-20T05:31:40;2.80;;;2.10;;
76725;SDS011;65651;53.154;17.916;2023-07-20T05:34:07;2.80;;;1.60;;
76725;SDS011;65651;53.154;17.916;2023-07-20T05:36:36;2.40;;;1.70;;
76725;SDS011;65651;53.154;17.916;2023-07-20T05:39:04;2.00;;;1.60;;
76725;SDS011;65651;53.154;17.916;2023-07-20T05:41:31;3.00;;;1.60;;
76725;SDS011;65651;53.154;17.916;2023-07-20T05:43:58;2.60;;;2.00;;
76725;SDS011;65651;53.154;17.916;2023-07-20T05:46:25;4.60;;;2.20;;
76725;SDS011;65651;53.154;17.916;2023-07-20T05:48:53;2.50;;;1.80;;
76725;SDS011;65651;53.154;17.916;2023-07-20T05:51:20;2.10;;;1.30;;
76725;SDS011;65651;53.154;17.916;2023-07-20T05:53:47;3.10;;;1.60;;
76725;SDS011;65651;53.154;17.916;2023-07-20T05:56:15;2.00;;;1.20;;
76725;SDS011;65651;53.154;17.916;2023-07-20T05:58:42;3.60;;;1.40;;
76725;SDS011;65651;53.154;17.916;2023-07-20T06:01:09;3.00;;;1.20;;
76725;SDS011;65651;53.154;17.916;2023-07-20T06:03:37;2.70;;;1.30;;
76725;SDS011;65651;53.154;17.916;2023-07-20T06:06:04;1.80;;;1.30;;
76725;SDS011;65651;53.154;17.916;2023-07-20T06:08:32;2.30;;;1.40;;
76725;SDS011;65651;53.154;17.916;2023-07-20T06:10:59;2.50;;;1.50;;
76725;SDS011;65651;53.154;17.916;2023-07-20T06:13:27;2.30;;;1.60;;
76725;SDS011;65651;53.154;17.916;2023-07-20T06:15:54;2.40;;;1.40;;
76725;SDS011;65651;53.154;17.916;2023-07-20T06:18:22;5.90;;;1.40;;
76725;SDS011;65651;53.154;17.916;2023-07-20T06:20:51;2.10;;;1.10;;
76725;SDS011;65651;53.154;17.916;2023-07-20T06:23:21;2.50;;;1.00;;
76725;SDS011;65651;53.154;17.916;2023-07-20T06:25:48;2.10;;;1.30;;
76725;SDS011;65651;53.154;17.916;2023-07-20T06:28:16;2.20;;;1.10;;
76725;SDS011;65651;53.154;17.916;2023-07-20T06:30:43;2.10;;;1.20;;
76725;SDS011;65651;53.154;17.916;2023-07-20T06:33:10;3.10;;;1.60;;
76725;SDS011;65651;53.154;17.916;2023-07-20T06:35:40;2.80;;;1.20;;
76725;SDS011;65651;53.154;17.916;2023-07-20T06:38:09;2.20;;;1.50;;
76725;SDS011;65651;53.154;17.916;2023-07-20T06:40:37;2.20;;;1.70;;
76725;SDS011;65651;53.154;17.916;2023-07-20T06:43:04;4.60;;;1.00;;
76725;SDS011;65651;53.154;17.916;2023-07-20T06:45:34;2.70;;;1.40;;
76725;SDS011;65651;53.154;17.916;2023-07-20T06:48:02;2.90;;;2.10;;
76725;SDS011;65651;53.154;17.916;2023-07-20T06:50:30;4.40;;;1.90;;
76725;SDS011;65651;53.154;17.916;2023-07-20T06:52:57;4.70;;;1.20;;
76725;SDS011;65651;53.154;17.916;2023-07-20T06:55:25;3.00;;;1.60;;
76725;SDS011;65651;53.154;17.916;2023-07-20T06:57:53;2.30;;;2.10;;
76725;SDS011;65651;53.154;17.916;2023-07-20T07:00:21;2.90;;;1.30;;
76725;SDS011;65651;53.154;17.916;2023-07-20T07:02:48;2.60;;;1.10;;
76725;SDS011;65651;53.154;17.916;2023-07-20T07:05:15;4.90;;;1.00;;
76725;SDS011;65651;53.154;17.916;2023-07-20T07:07:43;3.00;;;2.10;;
76725;SDS011;65651;53.154;17.916;2023-07-20T07:10:10;2.20;;;1.60;;
76725;SDS011;65651;53.154;17.916;2023-07-20T07:12:37;4.80;;;1.20;;
76725;SDS011;65651;53.154;17.916;2023-07-20T07:15:04;2.50;;;1.50;;
76725;SDS011;65651;53.154;17.916;2023-07-20T07:17:37;3.10;;;1.60;;
76725;SDS011;65651;53.154;17.916;2023-07-20T07:20:05;1.60;;;1.00;;
76725;SDS011;65651;53.154;17.916;2023-07-20T07:22:34;4.10;;;1.50;;
76725;SDS011;65651;53.154;17.916;2023-07-20T07:25:01;3.70;;;1.30;;
76725;SDS011;65651;53.154;17.916;2023-07-20T07:27:30;2.20;;;1.50;;
76725;SDS011;65651;53.154;17.916;2023-07-20T07:29:57;1.40;;;1.10;;
76725;SDS011;65651;53.154;17.916;2023-07-20T07:32:25;2.30;;;0.90;;
76725;SDS011;65651;53.154;17.916;2023-07-20T07:34:52;3.60;;;1.60;;
76725;SDS011;65651;53.154;17.916;2023-07-20T07:37:22;3.30;;;1.20;;
76725;SDS011;65651;53.154;17.916;2023-07-20T07:39:50;3.80;;;1.00;;
76725;SDS011;65651;53.154;17.916;2023-07-20T07:42:17;2.50;;;1.40;;
76725;SDS011;65651;53.154;17.916;2023-07-20T07:44:45;2.10;;;1.30;;
76725;SDS011;65651;53.154;17.916;2023-07-20T07:47:12;3.50;;;1.30;;
76725;SDS011;65651;53.154;17.916;2023-07-20T07:49:39;2.70;;;1.00;;
76725;SDS011;65651;53.154;17.916;2023-07-20T07:52:07;1.60;;;1.00;;
76725;SDS011;65651;53.154;17.916;2023-07-20T07:54:34;1.40;;;0.90;;
76725;SDS011;65651;53.154;17.916;2023-07-20T07:57:02;1.70;;;1.50;;
76725;SDS011;65651;53.154;17.916;2023-07-20T07:59:30;2.50;;;1.10;;
76725;SDS011;65651;53.154;17.916;2023-07-20T08:01:57;3.10;;;0.90;;
76725;SDS011;65651;53.154;17.916;2023-07-20T08:04:26;1.80;;;1.40;;
76725;SDS011;65651;53.154;17.916;2023-07-20T08:06:53;1.80;;;1.00;;
76725;SDS011;65651;53.154;17.916;2023-07-20T08:09:21;2.20;;;1.30;;
76725;SDS011;65651;53.154;17.916;2023-07-20T08:11:48;3.00;;;1.30;;
76725;SDS011;65651;53.154;17.916;2023-07-20T08:14:18;3.00;;;1.40;;
76725;SDS011;65651;53.154;17.916;2023-07-20T08:16:48;5.60;;;1.50;;
76725;SDS011;65651;53.154;17.916;2023-07-20T08:19:16;4.60;;;1.50;;
76725;SDS011;65651;53.154;17.916;2023-07-20T08:21:43;2.80;;;1.10;;
76725;SDS011;65651;53.154;17.916;2023-07-20T08:24:10;1.60;;;0.80;;
76725;SDS011;65651;53.154;17.916;2023-07-20T08:26:38;2.10;;;1.10;;
76725;SDS011;65651;53.154;17.916;2023-07-20T08:29:05;8.60;;;1.20;;
76725;SDS011;65651;53.154;17.916;2023-07-20T08:31:32;1.90;;;1.00;;
76725;SDS011;65651;53.154;17.916;2023-07-20T08:34:00;1.40;;;0.90;;
76725;SDS011;65651;53.154;17.916;2023-07-20T08:36:27;1.80;;;1.10;;
76725;SDS011;65651;53.154;17.916;2023-07-20T08:38:54;1.30;;;0.70;;
76725;SDS011;65651;53.154;17.916;2023-07-20T08:41:22;2.10;;;0.80;;
76725;SDS011;65651;53.154;17.916;2023-07-20T08:43:49;3.70;;;1.00;;
76725;SDS011;65651;53.154;17.916;2023-07-20T08:46:22;3.70;;;1.10;;
76725;SDS011;65651;53.154;17.916;2023-07-20T08:48:51;7.60;;;1.30;;
76725;SDS011;65651;53.154;17.916;2023-07-20T08:51:19;2.50;;;1.20;;
76725;SDS011;65651;53.154;17.916;2023-07-20T08:53:48;1.90;;;1.00;;
76725;SDS011;65651;53.154;17.916;2023-07-20T08:56:18;2.70;;;1.20;;
76725;SDS011;65651;53.154;17.916;2023-07-20T08:58:49;4.50;;;1.30;;
76725;SDS011;65651;53.154;17.916;2023-07-20T09:01:23;1.60;;;0.90;;
76725;SDS011;65651;53.154;17.916;2023-07-20T09:03:52;6.20;;;1.40;;
76725;SDS011;65651;53.154;17.916;2023-07-20T09:06:21;2.20;;;1.50;;
76725;SDS011;65651;53.154;17.916;2023-07-20T09:08:48;2.50;;;1.00;;
76725;SDS011;65651;53.154;17.916;2023-07-20T09:11:15;2.00;;;1.30;;
76725;SDS011;65651;53.154;17.916;2023-07-20T09:13:43;3.50;;;1.10;;
76725;SDS011;65651;53.154;17.916;2023-07-20T09:16:13;1.70;;;0.80;;
76725;SDS011;65651;53.154;17.916;2023-07-20T09:18:42;1.60;;;0.90;;
76725;SDS011;65651;53.154;17.916;2023-07-20T09:21:09;2.10;;;1.10;;
76725;SDS011;65651;53.154;17.916;2023-07-20T09:23:36;1.70;;;0.70;;
76725;SDS011;65651;53.154;17.916;2023-07-20T09:26:09;1.80;;;0.90;;
76725;SDS011;65651;53.154;17.916;2023-07-20T09:28:53;1.90;;;1.10;;
76725;SDS011;65651;53.154;17.916;2023-07-20T09:31:22;1.40;;;0.80;;
76725;SDS011;65651;53.154;17.916;2023-07-20T09:33:51;1.30;;;0.70;;
76725;SDS011;65651;53.154;17.916;2023-07-20T09:36:20;1.90;;;1.10;;
76725;SDS011;65651;53.154;17.916;2023-07-20T09:38:47;2.80;;;1.10;;
76725;SDS011;65651;53.154;17.916;2023-07-20T09:41:15;3.00;;;1.00;;
76725;SDS011;65651;53.154;17.916;2023-07-20T09:43:42;1.60;;;0.80;;
76725;SDS011;65651;53.154;17.916;2023-07-20T09:46:09;1.70;;;0.80;;
76725;SDS011;65651;53.154;17.916;2023-07-20T09:48:37;4.30;;;0.90;;
76725;SDS011;65651;53.154;17.916;2023-07-20T09:51:06;2.80;;;0.80;;
76725;SDS011;65651;53.154;17.916;2023-07-20T09:53:37;1.60;;;0.80;;
76725;SDS011;65651;53.154;17.916;2023-07-20T09:56:04;1.80;;;1.00;;
76725;SDS011;65651;53.154;17.916;2023-07-20T09:58:33;2.20;;;1.00;;
76725;SDS011;65651;53.154;17.916;2023-07-20T10:01:01;10.00;;;1.10;;
76725;SDS011;65651;53.154;17.916;2023-07-20T10:03:32;1.60;;;0.80;;
76725;SDS011;65651;53.154;17.916;2023-07-20T10:06:05;1.60;;;0.80;;
76725;SDS011;65651;53.154;17.916;2023-07-20T10:08:38;2.30;;;0.80;;
76725;SDS011;65651;53.154;17.916;2023-07-20T10:11:07;1.40;;;0.70;;
76725;SDS011;65651;53.154;17.916;2023-07-20T10:13:38;1.80;;;0.80;;
76725;SDS011;65651;53.154;17.916;2023-07-20T10:16:11;1.60;;;0.80;;
76725;SDS011;65651;53.154;17.916;2023-07-20T10:18:42;1.20;;;0.70;;
76725;SDS011;65651;53.154;17.916;2023-07-20T10:21:22;2.10;;;0.70;;
76725;SDS011;65651;53.154;17.916;2023-07-20T10:23:50;1.20;;;0.50;;
76725;SDS011;65651;53.154;17.916;2023-07-20T10:26:25;4.30;;;1.40;;
76725;SDS011;65651;53.154;17.916;2023-07-20T10:28:53;2.00;;;1.30;;
76725;SDS011;65651;53.154;17.916;2023-07-20T10:31:24;10.50;;;9.50;;
76725;SDS011;65651;53.154;17.916;2023-07-20T10:33:58;4.00;;;3.40;;
76725;SDS011;65651;53.154;17.916;2023-07-20T10:36:27;7.50;;;1.80;;
76725;SDS011;65651;53.154;17.916;2023-07-20T10:38:55;3.10;;;1.20;;
76725;SDS011;65651;53.154;17.916;2023-07-20T10:41:33;2.60;;;1.30;;
76725;SDS011;65651;53.154;17.916;2023-07-20T10:44:06;5.00;;;0.90;;
76725;SDS011;65651;53.154;17.916;2023-07-20T10:49:06;2.30;;;0.80;;
76725;SDS011;65651;53.154;17.916;2023-07-20T10:51:39;2.40;;;0.70;;
76725;SDS011;65651;53.154;17.916;2023-07-20T10:54:11;1.60;;;0.60;;
76725;SDS011;65651;53.154;17.916;2023-07-20T10:56:57;6.90;;;0.70;;
76725;SDS011;65651;53.154;17.916;2023-07-20T10:59:45;2.30;;;1.00;;
76725;SDS011;65651;53.154;17.916;2023-07-20T11:02:17;2.70;;;0.70;;
76725;SDS011;65651;53.154;17.916;2023-07-20T11:04:47;1.20;;;0.60;;
76725;SDS011;65651;53.154;17.916;2023-07-20T11:07:35;2.00;;;1.20;;
76725;SDS011;65651;53.154;17.916;2023-07-20T11:10:15;1.00;;;0.60;;
76725;SDS011;65651;53.154;17.916;2023-07-20T11:18:26;3.20;;;0.60;;
76725;SDS011;65651;53.154;17.916;2023-07-20T11:20:53;1.20;;;0.50;;
76725;SDS011;65651;53.154;17.916;2023-07-20T11:23:21;2.30;;;0.90;;
76725;SDS011;65651;53.154;17.916;2023-07-20T11:25:48;3.90;;;1.40;;
76725;SDS011;65651;53.154;17.916;2023-07-20T11:28:16;6.20;;;1.00;;
76725;SDS011;65651;53.154;17.916;2023-07-20T11:30:44;7.90;;;1.20;;
76725;SDS011;65651;53.154;17.916;2023-07-20T11:33:12;3.70;;;1.70;;
76725;SDS011;65651;53.154;17.916;2023-07-20T11:35:42;5.60;;;1.10;;
76725;SDS011;65651;53.154;17.916;2023-07-20T11:38:12;2.40;;;0.90;;
76725;SDS011;65651;53.154;17.916;2023-07-20T11:40:44;7.90;;;1.30;;
76725;SDS011;65651;53.154;17.916;2023-07-20T11:43:12;10.40;;;4.40;;
76725;SDS011;65651;53.154;17.916;2023-07-20T11:45:40;8.30;;;1.10;;
76725;SDS011;65651;53.154;17.916;2023-07-20T11:48:13;2.30;;;0.70;;
76725;SDS011;65651;53.154;17.916;2023-07-20T11:50:41;6.70;;;1.00;;
76725;SDS011;65651;53.154;17.916;2023-07-20T11:53:09;4.30;;;1.00;;
76725;SDS011;65651;53.154;17.916;2023-07-20T11:55:37;3.10;;;0.90;;
76725;SDS011;65651;53.154;17.916;2023-07-20T11:58:10;5.80;;;1.00;;
76725;SDS011;65651;53.154;17.916;2023-07-20T12:00:44;3.40;;;0.90;;
76725;SDS011;65651;53.154;17.916;2023-07-20T12:03:13;4.10;;;0.80;;
76725;SDS011;65651;53.154;17.916;2023-07-20T12:05:40;3.70;;;1.20;;
76725;SDS011;65651;53.154;17.916;2023-07-20T12:08:08;2.80;;;1.10;;
76725;SDS011;65651;53.154;17.916;2023-07-20T12:10:38;2.90;;;0.90;;
76725;SDS011;65651;53.154;17.916;2023-07-20T12:13:10;3.00;;;0.80;;
76725;SDS011;65651;53.154;17.916;2023-07-20T12:15:39;1.60;;;0.80;;
76725;SDS011;65651;53.154;17.916;2023-07-20T12:18:09;2.70;;;0.70;;
76725;SDS011;65651;53.154;17.916;2023-07-20T12:20:37;2.30;;;0.60;;
76725;SDS011;65651;53.154;17.916;2023-07-20T12:23:10;4.90;;;0.80;;
76725;SDS011;65651;53.154;17.916;2023-07-20T12:25:42;5.50;;;0.80;;
76725;SDS011;65651;53.154;17.916;2023-07-20T12:28:12;2.70;;;1.30;;
76725;SDS011;65651;53.154;17.916;2023-07-20T12:30:44;2.50;;;1.00;;
76725;SDS011;65651;53.154;17.916;2023-07-20T12:33:15;4.10;;;0.90;;
76725;SDS011;65651;53.154;17.916;2023-07-20T12:35:45;2.60;;;1.00;;
76725;SDS011;65651;53.154;17.916;2023-07-20T12:38:13;3.20;;;1.30;;
76725;SDS011;65651;53.154;17.916;2023-07-20T12:40:40;2.30;;;1.10;;
76725;SDS011;65651;53.154;17.916;2023-07-20T12:43:08;1.70;;;0.70;;
76725;SDS011;65651;53.154;17.916;2023-07-20T12:45:39;4.10;;;0.90;;
76725;SDS011;65651;53.154;17.916;2023-07-20T12:48:07;1.90;;;0.70;;
76725;SDS011;65651;53.154;17.916;2023-07-20T12:50:37;1.80;;;1.10;;
76725;SDS011;65651;53.154;17.916;2023-07-20T12:53:06;1.60;;;0.70;;
76725;SDS011;65651;53.154;17.916;2023-07-20T12:55:33;1.30;;;0.70;;
76725;SDS011;65651;53.154;17.916;2023-07-20T12:58:00;1.70;;;0.70;;
76725;SDS011;65651;53.154;17.916;2023-07-20T13:00:31;1.30;;;0.80;;
76725;SDS011;65651;53.154;17.916;2023-07-20T13:03:01;1.10;;;0.80;;
76725;SDS011;65651;53.154;17.916;2023-07-20T13:05:37;1.50;;;0.80;;
76725;SDS011;65651;53.154;17.916;2023-07-20T13:08:09;1.20;;;1.00;;
76725;SDS011;65651;53.154;17.916;2023-07-20T13:10:38;2.10;;;1.10;;
76725;SDS011;65651;53.154;17.916;2023-07-20T13:13:09;1.40;;;1.10;;
76725;SDS011;65651;53.154;17.916;2023-07-20T13:15:43;1.30;;;1.00;;
76725;SDS011;65651;53.154;17.916;2023-07-20T13:18:11;1.80;;;1.10;;
76725;SDS011;65651;53.154;17.916;2023-07-20T13:20:40;1.20;;;0.90;;
76725;SDS011;65651;53.154;17.916;2023-07-20T13:23:08;1.30;;;1.10;;
76725;SDS011;65651;53.154;17.916;2023-07-20T13:25:37;2.10;;;1.00;;
76725;SDS011;65651;53.154;17.916;2023-07-20T13:28:08;1.80;;;1.40;;
76725;SDS011;65651;53.154;17.916;2023-07-20T13:30:37;1.90;;;1.40;;
76725;SDS011;65651;53.154;17.916;2023-07-20T13:33:12;1.60;;;1.10;;
76725;SDS011;65651;53.154;17.916;2023-07-20T13:35:39;1.10;;;0.90;;
76725;SDS011;65651;53.154;17.916;2023-07-20T13:38:07;4.90;;;4.00;;
76725;SDS011;65651;53.154;17.916;2023-07-20T13:40:34;1.70;;;1.30;;
76725;SDS011;65651;53.154;17.916;2023-07-20T13:43:04;1.30;;;0.80;;
76725;SDS011;65651;53.154;17.916;2023-07-20T13:45:31;2.30;;;0.70;;
76725;SDS011;65651;53.154;17.916;2023-07-20T13:47:59;1.40;;;0.80;;
76725;SDS011;65651;53.154;17.916;2023-07-20T13:50:26;1.70;;;0.80;;
76725;SDS011;65651;53.154;17.916;2023-07-20T13:52:58;1.60;;;0.80;;
76725;SDS011;65651;53.154;17.916;2023-07-20T13:55:25;0.70;;;0.60;;
76725;SDS011;65651;53.154;17.916;2023-07-20T13:57:55;1.60;;;0.80;;
76725;SDS011;65651;53.154;17.916;2023-07-20T14:00:26;0.80;;;0.60;;
76725;SDS011;65651;53.154;17.916;2023-07-20T14:02:57;1.20;;;0.90;;
76725;SDS011;65651;53.154;17.916;2023-07-20T14:05:25;1.90;;;1.00;;
76725;SDS011;65651;53.154;17.916;2023-07-20T14:07:52;1.60;;;0.90;;
76725;SDS011;65651;53.154;17.916;2023-07-20T14:10:20;0.80;;;0.60;;
76725;SDS011;65651;53.154;17.916;2023-07-20T14:12:48;1.70;;;0.80;;
76725;SDS011;65651;53.154;17.916;2023-07-20T14:15:16;1.70;;;1.10;;
76725;SDS011;65651;53.154;17.916;2023-07-20T14:17:45;1.20;;;0.90;;
76725;SDS011;65651;53.154;17.916;2023-07-20T14:20:15;1.40;;;0.80;;
76725;SDS011;65651;53.154;17.916;2023-07-20T14:22:45;1.90;;;1.30;;
76725;SDS011;65651;53.154;17.916;2023-07-20T14:25:12;2.50;;;0.70;;
76725;SDS011;65651;53.154;17.916;2023-07-20T14:27:40;1.00;;;0.80;;
76725;SDS011;65651;53.154;17.916;2023-07-20T14:30:08;2.60;;;1.10;;
76725;SDS011;65651;53.154;17.916;2023-07-20T14:32:40;2.50;;;1.00;;
76725;SDS011;65651;53.154;17.916;2023-07-20T14:35:08;1.20;;;0.60;;
76725;SDS011;65651;53.154;17.916;2023-07-20T14:37:36;2.20;;;0.50;;
76725;SDS011;65651;53.154;17.916;2023-07-20T14:40:03;2.10;;;0.60;;
76725;SDS011;65651;53.154;17.916;2023-07-20T14:42:35;0.80;;;0.60;;
76725;SDS011;65651;53.154;17.916;2023-07-20T14:45:03;2.30;;;0.70;;
76725;SDS011;65651;53.154;17.916;2023-07-20T14:47:32;1.20;;;0.50;;
76725;SDS011;65651;53.154;17.916;2023-07-20T14:50:02;0.80;;;0.50;;
76725;SDS011;65651;53.154;17.916;2023-07-20T14:52:33;1.20;;;0.60;;
76725;SDS011;65651;53.154;17.916;2023-07-20T14:55:07;1.50;;;0.60;;
76725;SDS011;65651;53.154;17.916;2023-07-20T14:57:35;0.90;;;0.50;;
76725;SDS011;65651;53.154;17.916;2023-07-20T15:00:06;0.80;;;0.50;;
76725;SDS011;65651;53.154;17.916;2023-07-20T15:02:37;1.00;;;0.40;;
76725;SDS011;65651;53.154;17.916;2023-07-20T15:05:06;1.60;;;0.60;;
76725;SDS011;65651;53.154;17.916;2023-07-20T15:07:35;1.90;;;0.70;;